sensor_id;sensor_type;location;lat;lon;timestamp;pressure;altitude;pressure_sealevel;temperature;humidity
36380;BME280;22411;53.016;18.632;2023-07-30T00:01:55;99793.44;;;16.70;100.00
36380;BME280;22411;53.016;18.632;2023-07-30T00:04:21;99796.06;;;16.70;100.00
36380;BME280;22411;53.016;18.632;2023-07-30T00:06:46;99790.16;;;16.68;100.00
36380;BME280;22411;53.016;18.632;2023-07-30T00:09:12;99790.38;;;16.75;100.00
36380;BME280;22411;53.016;18.632;2023-07-30T00:11:38;99792.16;;;16.75;100.00
36380;BME280;22411;53.016;18.632;2023-07-30T00:14:04;99790.72;;;16.72;100.00
36380;BME280;22411;53.016;18.632;2023-07-30T00:16:29;99790.00;;;16.70;100.00
36380;BME280;22411;53.016;18.632;2023-07-30T00:18:55;99790.38;;;16.75;100.00
36380;BME280;22411;53.016;18.632;2023-07-30T00:21:22;99786.28;;;16.72;100.00
36380;BME280;22411;53.016;18.632;2023-07-30T00:23:48;99790.38;;;16.75;100.00
36380;BME280;22411;53.016;18.632;2023-07-30T00:26:14;99787.59;;;16.77;100.00
36380;BME280;22411;53.016;18.632;2023-07-30T00:28:40;99784.81;;;16.78;100.00
36380;BME280;22411;53.016;18.632;2023-07-30T00:31:05;99790.88;;;16.79;100.00
36380;BME280;22411;53.016;18.632;2023-07-30T00:33:31;99796.91;;;16.79;100.00
36380;BME280;22411;53.016;18.632;2023-07-30T00:35:57;99786.63;;;16.78;100.00
36380;BME280;22411;53.016;18.632;2023-07-30T00:38:23;99787.44;;;16.78;100.00
36380;BME280;22411;53.016;18.632;2023-07-30T00:40:49;99788.25;;;16.79;100.00
36380;BME280;22411;53.016;18.632;2023-07-30T00:43:14;99795.44;;;16.85;100.00
36380;BME280;22411;53.016;18.632;2023-07-30T00:45:42;99796.44;;;16.92;100.00
36380;BME280;22411;53.016;18.632;2023-07-30T00:48:10;99808.69;;;16.91;100.00
36380;BME280;22411;53.016;18.632;2023-07-30T00:50:38;99803.31;;;16.85;100.00
36380;BME280;22411;53.016;18.632;2023-07-30T00:53:04;99814.94;;;16.82;100.00
36380;BME280;22411;53.016;18.632;2023-07-30T00:55:31;99821.28;;;16.80;100.00
36380;BME280;22411;53.016;18.632;2023-07-30T00:57:57;99811.31;;;16.75;100.00
36380;BME280;22411;53.016;18.632;2023-07-30T01:00:23;99810.50;;;16.75;100.00
36380;BME280;22411;53.016;18.632;2023-07-30T01:02:51;99804.59;;;16.72;100.00
36380;BME280;22411;53.016;18.632;2023-07-30T01:05:17;99817.22;;;16.77;100.00
36380;BME280;22411;53.016;18.632;2023-07-30T01:07:43;99815.41;;;16.78;100.00
36380;BME280;22411;53.016;18.632;2023-07-30T01:10:09;99813.09;;;16.75;100.00
36380;BME280;22411;53.016;18.632;2023-07-30T01:12:35;99818.34;;;16.75;100.00
36380;BME280;22411;53.016;18.632;2023-07-30T01:15:01;99819.00;;;16.85;100.00
36380;BME280;22411;53.016;18.632;2023-07-30T01:17:28;99824.72;;;16.80;100.00
36380;BME280;22411;53.016;18.632;2023-07-30T01:19:55;99824.06;;;16.78;100.00
36380;BME280;22411;53.016;18.632;2023-07-30T01:22:22;99821.94;;;16.73;100.00
36380;BME280;22411;53.016;18.632;2023-07-30T01:24:48;99830.78;;;16.72;100.00
36380;BME280;22411;53.016;18.632;2023-07-30T01:27:33;99819.59;;;16.70;100.00
36380;BME280;22411;53.016;18.632;2023-07-30T01:30:18;99828.28;;;16.71;100.00
36380;BME280;22411;53.016;18.632;2023-07-30T01:32:49;99830.53;;;16.66;100.00
36380;BME280;22411;53.016;18.632;2023-07-30T01:35:15;99833.31;;;16.64;100.00
36380;BME280;22411;53.016;18.632;2023-07-30T01:37:43;99828.91;;;16.65;100.00
36380;BME280;22411;53.016;18.632;2023-07-30T01:40:09;99834.31;;;16.63;100.00
36380;BME280;22411;53.016;18.632;2023-07-30T01:42:36;99832.34;;;16.65;100.00
36380;BME280;22411;53.016;18.632;2023-07-30T01:45:01;99835.94;;;16.64;100.00
36380;BME280;22411;53.016;18.632;2023-07-30T01:47:27;99837.09;;;16.62;100.00
36380;BME280;22411;53.016;18.632;2023-07-30T01:49:53;99843.97;;;16.63;100.00
36380;BME280;22411;53.016;18.632;2023-07-30T01:52:19;99840.53;;;16.62;100.00
36380;BME280;22411;53.016;18.632;2023-07-30T01:54:44;99844.78;;;16.63;100.00
36380;BME280;22411;53.016;18.632;2023-07-30T01:57:10;99845.91;;;16.61;100.00
36380;BME280;22411;53.016;18.632;2023-07-30T01:59:35;99834.97;;;16.65;100.00
36380;BME280;22411;53.016;18.632;2023-07-30T02:02:01;99842.97;;;16.64;100.00
36380;BME280;22411;53.016;18.632;2023-07-30T02:04:27;99842.31;;;16.62;100.00
36380;BME280;22411;53.016;18.632;2023-07-30T02:06:52;99844.13;;;16.61;100.00
36380;BME280;22411;53.016;18.632;2023-07-30T02:09:18;99844.44;;;16.58;100.00
36380;BME280;22411;53.016;18.632;2023-07-30T02:11:44;99851.63;;;16.56;100.00
36380;BME280;22411;53.016;18.632;2023-07-30T02:14:09;99843.09;;;16.54;100.00
36380;BME280;22411;53.016;18.632;2023-07-30T02:16:36;99846.53;;;16.55;100.00
36380;BME280;22411;53.016;18.632;2023-07-30T02:19:01;99850.94;;;16.54;100.00
36380;BME280;22411;53.016;18.632;2023-07-30T02:21:27;99854.38;;;16.55;100.00
36380;BME280;22411;53.016;18.632;2023-07-30T02:23:52;99850.94;;;16.54;100.00
36380;BME280;22411;53.016;18.632;2023-07-30T02:26:18;99853.56;;;16.54;100.00
36380;BME280;22411;53.016;18.632;2023-07-30T02:28:44;99857.00;;;16.55;100.00
36380;BME280;22411;53.016;18.632;2023-07-30T02:31:09;99855.06;;;16.57;100.00
36380;BME280;22411;53.016;18.632;2023-07-30T02:33:35;99856.88;;;16.56;100.00
36380;BME280;22411;53.016;18.632;2023-07-30T02:36:01;99859.31;;;16.58;100.00
36380;BME280;22411;53.016;18.632;2023-07-30T02:38:26;99855.88;;;16.57;100.00
36380;BME280;22411;53.016;18.632;2023-07-30T02:40:52;99852.13;;;16.60;100.00
36380;BME280;22411;53.016;18.632;2023-07-30T02:43:17;99865.19;;;16.60;100.00
36380;BME280;22411;53.016;18.632;2023-07-30T02:45:47;99857.84;;;16.63;100.00
36380;BME280;22411;53.016;18.632;2023-07-30T02:48:12;99857.69;;;16.65;100.00
36380;BME280;22411;53.016;18.632;2023-07-30T02:50:38;99868.97;;;16.65;100.00
36380;BME280;22411;53.016;18.632;2023-07-30T02:53:03;99864.38;;;16.59;100.00
36380;BME280;22411;53.016;18.632;2023-07-30T02:55:29;99876.00;;;16.65;100.00
36380;BME280;22411;53.016;18.632;2023-07-30T02:57:55;99871.09;;;16.62;100.00
36380;BME280;22411;53.016;18.632;2023-07-30T03:00:20;99867.50;;;16.63;100.00
36380;BME280;22411;53.016;18.632;2023-07-30T03:02:46;99879.09;;;16.60;100.00
36380;BME280;22411;53.016;18.632;2023-07-30T03:05:12;99873.72;;;16.62;100.00
36380;BME280;22411;53.016;18.632;2023-07-30T03:07:37;99868.78;;;16.59;100.00
36380;BME280;22411;53.016;18.632;2023-07-30T03:10:03;99866.81;;;16.61;100.00
36380;BME280;22411;53.016;18.632;2023-07-30T03:12:29;99878.78;;;16.63;100.00
36380;BME280;22411;53.016;18.632;2023-07-30T03:14:55;99868.63;;;16.60;100.00
36380;BME280;22411;53.016;18.632;2023-07-30T03:17:20;99858.84;;;16.62;100.00
36380;BME280;22411;53.016;18.632;2023-07-30T03:19:46;99862.28;;;16.63;100.00
36380;BME280;22411;53.016;18.632;2023-07-30T03:22:12;99867.00;;;16.59;100.00
36380;BME280;22411;53.016;18.632;2023-07-30T03:24:37;99864.53;;;16.58;100.00
36380;BME280;22411;53.016;18.632;2023-07-30T03:27:03;99860.63;;;16.62;100.00
36380;BME280;22411;53.016;18.632;2023-07-30T03:29:29;99861.78;;;16.67;100.00
36380;BME280;22411;53.016;18.632;2023-07-30T03:31:55;99854.94;;;16.66;100.00
36380;BME280;22411;53.016;18.632;2023-07-30T03:34:20;99849.19;;;16.63;100.00
36380;BME280;22411;53.016;18.632;2023-07-30T03:36:46;99854.72;;;16.60;100.00
36380;BME280;22411;53.016;18.632;2023-07-30T03:39:12;99854.44;;;16.63;100.00
36380;BME280;22411;53.016;18.632;2023-07-30T03:41:38;99869.78;;;16.66;100.00
36380;BME280;22411;53.016;18.632;2023-07-30T03:44:03;99873.25;;;16.66;100.00
36380;BME280;22411;53.016;18.632;2023-07-30T03:46:29;99876.34;;;16.70;100.00
36380;BME280;22411;53.016;18.632;2023-07-30T03:48:55;99886.88;;;16.78;100.00
36380;BME280;22411;53.016;18.632;2023-07-30T03:51:20;99879.66;;;16.72;100.00
36380;BME280;22411;53.016;18.632;2023-07-30T03:53:46;99887.19;;;16.75;100.00
36380;BME280;22411;53.016;18.632;2023-07-30T03:56:11;99874.72;;;16.69;100.00
36380;BME280;22411;53.016;18.632;2023-07-30T03:58:37;99883.38;;;16.69;100.00
36380;BME280;22411;53.016;18.632;2023-07-30T04:01:03;99873.72;;;16.70;100.00
36380;BME280;22411;53.016;18.632;2023-07-30T04:03:29;99869.69;;;16.76;100.00
36380;BME280;22411;53.016;18.632;2023-07-30T04:05:54;99873.94;;;16.77;100.00
36380;BME280;22411;53.016;18.632;2023-07-30T04:08:20;99872.63;;;16.81;100.00
36380;BME280;22411;53.016;18.632;2023-07-30T04:10:46;99870.34;;;16.86;100.00
36380;BME280;22411;53.016;18.632;2023-07-30T04:13:12;99881.84;;;16.93;100.00
36380;BME280;22411;53.016;18.632;2023-07-30T04:15:37;99888.53;;;16.95;100.00
36380;BME280;22411;53.016;18.632;2023-07-30T04:18:03;99899.53;;;16.99;100.00
36380;BME280;22411;53.016;18.632;2023-07-30T04:20:28;99900.50;;;16.98;100.00
36380;BME280;22411;53.016;18.632;2023-07-30T04:22:54;99899.03;;;17.04;100.00
36380;BME280;22411;53.016;18.632;2023-07-30T04:25:20;99892.16;;;17.03;100.00
36380;BME280;22411;53.016;18.632;2023-07-30T04:27:45;99886.91;;;17.03;100.00
36380;BME280;22411;53.016;18.632;2023-07-30T04:30:11;99892.00;;;17.04;100.00
36380;BME280;22411;53.016;18.632;2023-07-30T04:32:37;99896.59;;;17.10;100.00
36380;BME280;22411;53.016;18.632;2023-07-30T04:35:03;99886.63;;;17.14;100.00
36380;BME280;22411;53.016;18.632;2023-07-30T04:37:28;99898.56;;;17.16;100.00
36380;BME280;22411;53.016;18.632;2023-07-30T04:39:54;99909.03;;;17.16;100.00
36380;BME280;22411;53.016;18.632;2023-07-30T04:42:20;99912.28;;;17.18;100.00
36380;BME280;22411;53.016;18.632;2023-07-30T04:44:45;99916.41;;;17.21;100.00
36380;BME280;22411;53.016;18.632;2023-07-30T04:47:11;99920.00;;;17.20;100.00
36380;BME280;22411;53.016;18.632;2023-07-30T04:49:37;99918.19;;;17.29;100.00
36380;BME280;22411;53.016;18.632;2023-07-30T04:52:08;99922.63;;;17.28;100.00
36380;BME280;22411;53.016;18.632;2023-07-30T04:54:34;99914.97;;;17.35;100.00
36380;BME280;22411;53.016;18.632;2023-07-30T04:57:02;99913.28;;;17.34;100.00
36380;BME280;22411;53.016;18.632;2023-07-30T04:59:28;99917.06;;;17.39;100.00
36380;BME280;22411;53.016;18.632;2023-07-30T05:01:53;99916.59;;;17.36;100.00
36380;BME280;22411;53.016;18.632;2023-07-30T05:04:19;99927.88;;;17.36;100.00
36380;BME280;22411;53.016;18.632;2023-07-30T05:06:45;99928.34;;;17.40;100.00
36380;BME280;22411;53.016;18.632;2023-07-30T05:09:10;99930.03;;;17.41;100.00
36380;BME280;22411;53.016;18.632;2023-07-30T05:11:38;99931.66;;;17.42;100.00
36380;BME280;22411;53.016;18.632;2023-07-30T05:14:04;99931.16;;;17.46;100.00
36380;BME280;22411;53.016;18.632;2023-07-30T05:16:30;99931.50;;;17.51;100.00
36380;BME280;22411;53.016;18.632;2023-07-30T05:18:55;99940.19;;;17.52;100.00
36380;BME280;22411;53.016;18.632;2023-07-30T05:21:21;99935.56;;;17.54;100.00
36380;BME280;22411;53.016;18.632;2023-07-30T05:23:47;99944.13;;;17.56;100.00
36380;BME280;22411;53.016;18.632;2023-07-30T05:26:12;99938.69;;;17.58;100.00
36380;BME280;22411;53.016;18.632;2023-07-30T05:28:38;99943.94;;;17.58;100.00
36380;BME280;22411;53.016;18.632;2023-07-30T05:31:04;99932.97;;;17.54;100.00
36380;BME280;22411;53.016;18.632;2023-07-30T05:33:29;99940.34;;;17.59;100.00
36380;BME280;22411;53.016;18.632;2023-07-30T05:35:56;99933.13;;;17.61;100.00
36380;BME280;22411;53.016;18.632;2023-07-30T05:38:21;99949.50;;;17.71;100.00
36380;BME280;22411;53.016;18.632;2023-07-30T05:40:47;99944.13;;;17.72;100.00
36380;BME280;22411;53.016;18.632;2023-07-30T05:43:13;99947.22;;;17.68;100.00
36380;BME280;22411;53.016;18.632;2023-07-30T05:45:39;99944.25;;;17.71;100.00
36380;BME280;22411;53.016;18.632;2023-07-30T05:48:04;99942.28;;;17.65;100.00
36380;BME280;22411;53.016;18.632;2023-07-30T05:50:30;99935.41;;;17.64;100.00
36380;BME280;22411;53.016;18.632;2023-07-30T05:52:56;99940.00;;;17.70;100.00
36380;BME280;22411;53.016;18.632;2023-07-30T05:55:21;99938.91;;;17.72;100.00
36380;BME280;22411;53.016;18.632;2023-07-30T05:57:47;99939.88;;;17.80;100.00
36380;BME280;22411;53.016;18.632;2023-07-30T06:00:13;99945.94;;;17.80;100.00
36380;BME280;22411;53.016;18.632;2023-07-30T06:02:38;99946.56;;;17.82;100.00
36380;BME280;22411;53.016;18.632;2023-07-30T06:05:04;99942.31;;;17.89;100.00
36380;BME280;22411;53.016;18.632;2023-07-30T06:07:30;99948.88;;;17.85;100.00
36380;BME280;22411;53.016;18.632;2023-07-30T06:09:56;99942.16;;;17.91;100.00
36380;BME280;22411;53.016;18.632;2023-07-30T06:12:21;99956.25;;;17.90;100.00
36380;BME280;22411;53.016;18.632;2023-07-30T06:14:47;99950.69;;;17.93;100.00
36380;BME280;22411;53.016;18.632;2023-07-30T06:17:12;99952.97;;;17.96;100.00
36380;BME280;22411;53.016;18.632;2023-07-30T06:19:38;99945.22;;;18.02;100.00
36380;BME280;22411;53.016;18.632;2023-07-30T06:22:04;99953.09;;;18.11;100.00
36380;BME280;22411;53.016;18.632;2023-07-30T06:24:30;99951.78;;;18.15;100.00
36380;BME280;22411;53.016;18.632;2023-07-30T06:26:55;99957.19;;;18.21;100.00
36380;BME280;22411;53.016;18.632;2023-07-30T06:29:21;99954.69;;;18.28;100.00
36380;BME280;22411;53.016;18.632;2023-07-30T06:31:47;99950.75;;;18.40;100.00
36380;BME280;22411;53.016;18.632;2023-07-30T06:34:12;99956.78;;;18.49;100.00
36380;BME280;22411;53.016;18.632;2023-07-30T06:36:38;99951.53;;;18.49;100.00
36380;BME280;22411;53.016;18.632;2023-07-30T06:39:04;99956.44;;;18.52;100.00
36380;BME280;22411;53.016;18.632;2023-07-30T06:41:29;99949.53;;;18.59;100.00
36380;BME280;22411;53.016;18.632;2023-07-30T06:43:55;99952.28;;;18.74;100.00
36380;BME280;22411;53.016;18.632;2023-07-30T06:46:21;99959.91;;;18.92;100.00
36380;BME280;22411;53.016;18.632;2023-07-30T06:48:46;99966.03;;;19.15;100.00
36380;BME280;22411;53.016;18.632;2023-07-30T06:51:12;99958.75;;;19.25;100.00
36380;BME280;22411;53.016;18.632;2023-07-30T06:53:39;99969.47;;;19.39;100.00
36380;BME280;22411;53.016;18.632;2023-07-30T06:56:05;99965.28;;;19.52;100.00
36380;BME280;22411;53.016;18.632;2023-07-30T06:58:30;99967.34;;;19.65;100.00
36380;BME280;22411;53.016;18.632;2023-07-30T07:00:56;99964.56;;;19.58;100.00
36380;BME280;22411;53.016;18.632;2023-07-30T07:03:22;99963.28;;;19.63;100.00
36380;BME280;22411;53.016;18.632;2023-07-30T07:05:54;99966.91;;;19.62;100.00
36380;BME280;22411;53.016;18.632;2023-07-30T07:08:21;99961.03;;;19.74;100.00
36380;BME280;22411;53.016;18.632;2023-07-30T07:10:46;99965.38;;;19.82;100.00
36380;BME280;22411;53.016;18.632;2023-07-30T07:13:12;99967.06;;;19.98;100.00
36380;BME280;22411;53.016;18.632;2023-07-30T07:15:44;99969.91;;;20.11;100.00
36380;BME280;22411;53.016;18.632;2023-07-30T07:18:10;99975.00;;;20.27;100.00
36380;BME280;22411;53.016;18.632;2023-07-30T07:20:36;99973.94;;;20.36;100.00
36380;BME280;22411;53.016;18.632;2023-07-30T07:23:03;99973.00;;;20.29;100.00
36380;BME280;22411;53.016;18.632;2023-07-30T07:25:28;99977.13;;;20.47;100.00
36380;BME280;22411;53.016;18.632;2023-07-30T07:27:54;99982.53;;;20.45;100.00
36380;BME280;22411;53.016;18.632;2023-07-30T07:30:20;99979.25;;;20.28;100.00
36380;BME280;22411;53.016;18.632;2023-07-30T07:32:46;99982.00;;;20.20;100.00
36380;BME280;22411;53.016;18.632;2023-07-30T07:35:16;99985.53;;;20.27;100.00
36380;BME280;22411;53.016;18.632;2023-07-30T07:37:41;99987.16;;;20.43;100.00
36380;BME280;22411;53.016;18.632;2023-07-30T07:40:08;99996.25;;;20.41;100.00
36380;BME280;22411;53.016;18.632;2023-07-30T07:42:38;99978.19;;;20.37;100.00
36380;BME280;22411;53.016;18.632;2023-07-30T07:45:05;99994.09;;;20.59;100.00
36380;BME280;22411;53.016;18.632;2023-07-30T07:47:31;99995.03;;;20.51;100.00
36380;BME280;22411;53.016;18.632;2023-07-30T07:49:57;99992.94;;;20.24;100.00
36380;BME280;22411;53.016;18.632;2023-07-30T07:52:22;99999.03;;;20.39;100.00
36380;BME280;22411;53.016;18.632;2023-07-30T07:54:48;99991.28;;;20.60;100.00
36380;BME280;22411;53.016;18.632;2023-07-30T07:57:14;99992.06;;;20.91;100.00
36380;BME280;22411;53.016;18.632;2023-07-30T07:59:39;99987.66;;;21.12;100.00
36380;BME280;22411;53.016;18.632;2023-07-30T08:02:07;99989.47;;;21.12;100.00
36380;BME280;22411;53.016;18.632;2023-07-30T08:04:32;99995.69;;;21.04;100.00
36380;BME280;22411;53.016;18.632;2023-07-30T08:06:58;99991.13;;;21.13;100.00
36380;BME280;22411;53.016;18.632;2023-07-30T08:09:28;99998.78;;;21.29;100.00
36380;BME280;22411;53.016;18.632;2023-07-30T08:11:54;99999.28;;;21.33;100.00
36380;BME280;22411;53.016;18.632;2023-07-30T08:14:20;100001.91;;;21.33;100.00
36380;BME280;22411;53.016;18.632;2023-07-30T08:16:46;100003.03;;;21.45;100.00
36380;BME280;22411;53.016;18.632;2023-07-30T08:19:12;100010.66;;;21.55;100.00
36380;BME280;22411;53.016;18.632;2023-07-30T08:21:41;100010.19;;;21.51;100.00
36380;BME280;22411;53.016;18.632;2023-07-30T08:24:10;100002.47;;;21.50;100.00
36380;BME280;22411;53.016;18.632;2023-07-30T08:26:36;100001.53;;;21.36;100.00
36380;BME280;22411;53.016;18.632;2023-07-30T08:29:02;100009.81;;;21.33;100.00
36380;BME280;22411;53.016;18.632;2023-07-30T08:31:28;100009.63;;;21.34;100.00
36380;BME280;22411;53.016;18.632;2023-07-30T08:33:54;100007.06;;;21.41;100.00
36380;BME280;22411;53.016;18.632;2023-07-30T08:36:20;100004.88;;;21.66;100.00
36380;BME280;22411;53.016;18.632;2023-07-30T08:38:45;100005.41;;;21.83;100.00
36380;BME280;22411;53.016;18.632;2023-07-30T08:41:11;100007.22;;;22.04;100.00
36380;BME280;22411;53.016;18.632;2023-07-30T08:43:37;100017.47;;;22.41;100.00
36380;BME280;22411;53.016;18.632;2023-07-30T08:46:03;100017.88;;;22.45;100.00
36380;BME280;22411;53.016;18.632;2023-07-30T08:48:28;100014.06;;;22.48;100.00
36380;BME280;22411;53.016;18.632;2023-07-30T08:50:57;100020.94;;;22.42;100.00
36380;BME280;22411;53.016;18.632;2023-07-30T08:53:24;100011.41;;;22.48;100.00
36380;BME280;22411;53.016;18.632;2023-07-30T08:55:52;100013.34;;;22.67;100.00
36380;BME280;22411;53.016;18.632;2023-07-30T08:58:19;100026.97;;;22.70;100.00
36380;BME280;22411;53.016;18.632;2023-07-30T09:00:45;100015.13;;;22.60;100.00
36380;BME280;22411;53.016;18.632;2023-07-30T09:03:14;100010.06;;;22.58;100.00
36380;BME280;22411;53.016;18.632;2023-07-30T09:05:42;100005.13;;;22.83;100.00
36380;BME280;22411;53.016;18.632;2023-07-30T09:08:08;100014.16;;;23.02;100.00
36380;BME280;22411;53.016;18.632;2023-07-30T09:10:35;100013.63;;;23.27;100.00
36380;BME280;22411;53.016;18.632;2023-07-30T09:13:01;100009.16;;;23.40;100.00
36380;BME280;22411;53.016;18.632;2023-07-30T09:15:32;100017.19;;;23.67;100.00
36380;BME280;22411;53.016;18.632;2023-07-30T09:17:59;100022.00;;;23.57;100.00
36380;BME280;22411;53.016;18.632;2023-07-30T09:20:25;100025.25;;;23.45;100.00
36380;BME280;22411;53.016;18.632;2023-07-30T09:22:51;100018.63;;;23.02;100.00
36380;BME280;22411;53.016;18.632;2023-07-30T09:25:20;100020.69;;;22.71;100.00
36380;BME280;22411;53.016;18.632;2023-07-30T09:27:52;100031.22;;;23.00;100.00
36380;BME280;22411;53.016;18.632;2023-07-30T09:30:22;100031.91;;;23.15;100.00
36380;BME280;22411;53.016;18.632;2023-07-30T09:32:54;100036.13;;;23.09;100.00
36380;BME280;22411;53.016;18.632;2023-07-30T09:35:21;100035.06;;;23.04;100.00
36380;BME280;22411;53.016;18.632;2023-07-30T09:37:47;100033.31;;;22.83;100.00
36380;BME280;22411;53.016;18.632;2023-07-30T09:40:14;100042.63;;;23.07;100.00
36380;BME280;22411;53.016;18.632;2023-07-30T09:42:45;100035.50;;;23.01;100.00
36380;BME280;22411;53.016;18.632;2023-07-30T09:45:19;100039.41;;;23.18;100.00
36380;BME280;22411;53.016;18.632;2023-07-30T09:47:52;100037.50;;;23.60;100.00
36380;BME280;22411;53.016;18.632;2023-07-30T09:50:18;100037.94;;;23.83;100.00
36380;BME280;22411;53.016;18.632;2023-07-30T09:52:44;100033.28;;;23.85;100.00
36380;BME280;22411;53.016;18.632;2023-07-30T09:55:10;100041.00;;;23.87;100.00
36380;BME280;22411;53.016;18.632;2023-07-30T09:57:37;100039.22;;;23.94;100.00
36380;BME280;22411;53.016;18.632;2023-07-30T10:00:05;100043.44;;;24.15;100.00
36380;BME280;22411;53.016;18.632;2023-07-30T10:02:32;100037.56;;;24.33;100.00
36380;BME280;22411;53.016;18.632;2023-07-30T10:04:59;100044.03;;;24.70;100.00
36380;BME280;22411;53.016;18.632;2023-07-30T10:07:28;100048.28;;;24.84;100.00
36380;BME280;22411;53.016;18.632;2023-07-30T10:09:58;100043.13;;;24.96;100.00
36380;BME280;22411;53.016;18.632;2023-07-30T10:12:29;100041.28;;;24.96;100.00
36380;BME280;22411;53.016;18.632;2023-07-30T10:15:01;100042.63;;;25.19;100.00
36380;BME280;22411;53.016;18.632;2023-07-30T10:17:27;100036.13;;;24.50;100.00
36380;BME280;22411;53.016;18.632;2023-07-30T10:19:56;100042.22;;;24.50;100.00
36380;BME280;22411;53.016;18.632;2023-07-30T10:22:23;100044.56;;;24.92;100.00
36380;BME280;22411;53.016;18.632;2023-07-30T10:25:04;100047.44;;;25.35;100.00
36380;BME280;22411;53.016;18.632;2023-07-30T10:27:38;100053.06;;;25.52;100.00
36380;BME280;22411;53.016;18.632;2023-07-30T10:30:17;100053.47;;;25.17;100.00
36380;BME280;22411;53.016;18.632;2023-07-30T10:40:41;100047.34;;;25.17;100.00
36380;BME280;22411;53.016;18.632;2023-07-30T10:43:18;100047.81;;;25.07;100.00
36380;BME280;22411;53.016;18.632;2023-07-30T10:45:51;100031.19;;;25.63;100.00
36380;BME280;22411;53.016;18.632;2023-07-30T10:48:29;100043.03;;;26.17;100.00
36380;BME280;22411;53.016;18.632;2023-07-30T10:50:55;100038.25;;;26.51;100.00
36380;BME280;22411;53.016;18.632;2023-07-30T10:53:21;100030.97;;;26.21;100.00
36380;BME280;22411;53.016;18.632;2023-07-30T10:55:47;100033.66;;;26.15;100.00
36380;BME280;22411;53.016;18.632;2023-07-30T10:58:13;100029.75;;;25.61;100.00
36380;BME280;22411;53.016;18.632;2023-07-30T11:00:39;100027.56;;;25.58;100.00
36380;BME280;22411;53.016;18.632;2023-07-30T11:03:05;100029.53;;;24.72;100.00
36380;BME280;22411;53.016;18.632;2023-07-30T11:05:31;100030.66;;;25.10;100.00
36380;BME280;22411;53.016;18.632;2023-07-30T11:07:56;100031.38;;;25.62;100.00
36380;BME280;22411;53.016;18.632;2023-07-30T11:10:22;100036.25;;;25.65;100.00
36380;BME280;22411;53.016;18.632;2023-07-30T11:12:49;100030.38;;;25.94;100.00
36380;BME280;22411;53.016;18.632;2023-07-30T11:15:18;100019.47;;;25.71;100.00
36380;BME280;22411;53.016;18.632;2023-07-30T11:17:43;100026.06;;;26.18;100.00
36380;BME280;22411;53.016;18.632;2023-07-30T11:20:24;100023.47;;;26.37;100.00
36380;BME280;22411;53.016;18.632;2023-07-30T11:22:53;100020.50;;;26.26;100.00
36380;BME280;22411;53.016;18.632;2023-07-30T11:25:19;100026.66;;;26.20;100.00
36380;BME280;22411;53.016;18.632;2023-07-30T11:27:49;100019.88;;;26.24;100.00
36380;BME280;22411;53.016;18.632;2023-07-30T11:30:16;100022.38;;;26.19;100.00
36380;BME280;22411;53.016;18.632;2023-07-30T11:32:42;100020.03;;;26.29;100.00
36380;BME280;22411;53.016;18.632;2023-07-30T11:35:11;100026.16;;;26.30;100.00
36380;BME280;22411;53.016;18.632;2023-07-30T11:37:38;100027.69;;;26.44;100.00
36380;BME280;22411;53.016;18.632;2023-07-30T11:40:10;100021.66;;;26.30;100.00
36380;BME280;22411;53.016;18.632;2023-07-30T11:42:36;100014.97;;;25.78;100.00
36380;BME280;22411;53.016;18.632;2023-07-30T11:45:22;100023.16;;;26.01;100.00
36380;BME280;22411;53.016;18.632;2023-07-30T11:47:49;100017.72;;;26.15;100.00
36380;BME280;22411;53.016;18.632;2023-07-30T11:50:15;100026.63;;;26.27;100.00
36380;BME280;22411;53.016;18.632;2023-07-30T11:52:54;100028.63;;;26.31;100.00
36380;BME280;22411;53.016;18.632;2023-07-30T11:55:21;100015.28;;;26.13;100.00
36380;BME280;22411;53.016;18.632;2023-07-30T11:57:47;100015.28;;;26.13;100.00
36380;BME280;22411;53.016;18.632;2023-07-30T12:00:13;100019.53;;;25.96;100.00
36380;BME280;22411;53.016;18.632;2023-07-30T12:02:39;100018.28;;;25.67;100.00
36380;BME280;22411;53.016;18.632;2023-07-30T12:05:05;100008.34;;;26.12;100.00
36380;BME280;22411;53.016;18.632;2023-07-30T12:07:32;100004.63;;;26.38;100.00
36380;BME280;22411;53.016;18.632;2023-07-30T12:10:11;100008.13;;;26.57;100.00
36380;BME280;22411;53.016;18.632;2023-07-30T12:12:45;100002.53;;;26.65;100.00
36380;BME280;22411;53.016;18.632;2023-07-30T12:15:11;99999.78;;;27.08;100.00
36380;BME280;22411;53.016;18.632;2023-07-30T12:17:40;100004.44;;;26.95;100.00
36380;BME280;22411;53.016;18.632;2023-07-30T12:20:06;99990.91;;;25.98;100.00
36380;BME280;22411;53.016;18.632;2023-07-30T12:22:34;99989.47;;;26.45;100.00
36380;BME280;22411;53.016;18.632;2023-07-30T12:25:04;99990.94;;;26.59;100.00
36380;BME280;22411;53.016;18.632;2023-07-30T12:27:30;99996.38;;;26.83;97.82
36380;BME280;22411;53.016;18.632;2023-07-30T12:29:56;100000.16;;;26.57;100.00
36380;BME280;22411;53.016;18.632;2023-07-30T12:32:22;99986.91;;;27.05;100.00
36380;BME280;22411;53.016;18.632;2023-07-30T12:34:47;99983.97;;;27.25;98.67
36380;BME280;22411;53.016;18.632;2023-07-30T12:37:13;99980.59;;;26.70;98.59
36380;BME280;22411;53.016;18.632;2023-07-30T12:39:39;99980.50;;;26.95;100.00
36380;BME280;22411;53.016;18.632;2023-07-30T12:42:04;99995.28;;;27.21;96.26
36380;BME280;22411;53.016;18.632;2023-07-30T12:44:30;99983.00;;;27.08;94.50